sensor_id;sensor_type;location;lat;lon;timestamp;pressure;altitude;pressure_sealevel;temperature;humidity
43621;BME280;29213;50.770;7.298;2022-11-20T00:02:18;100502.22;;;1.54;57.45
43621;BME280;29213;50.770;7.298;2022-11-20T00:04:44;100444.72;;;1.12;57.22
43621;BME280;29213;50.770;7.298;2022-11-20T00:07:09;100394.47;;;0.92;57.44
43621;BME280;29213;50.770;7.298;2022-11-20T00:09:35;100451.47;;;1.29;57.21
43621;BME280;29213;50.770;7.298;2022-11-20T00:12:00;100448.50;;;1.34;57.05
43621;BME280;29213;50.770;7.298;2022-11-20T00:14:25;100492.34;;;1.58;56.64
43621;BME280;29213;50.770;7.298;2022-11-20T00:16:51;100395.53;;;1.03;57.02
43621;BME280;29213;50.770;7.298;2022-11-20T00:19:16;100393.31;;;1.10;56.64
43621;BME280;29213;50.770;7.298;2022-11-20T00:21:41;100478.69;;;1.66;56.79
43621;BME280;29213;50.770;7.298;2022-11-20T00:24:10;100496.78;;;1.95;57.01
43621;BME280;29213;50.770;7.298;2022-11-20T00:26:36;100497.19;;;2.01;56.38
43621;BME280;29213;50.770;7.298;2022-11-20T00:29:01;100495.00;;;2.08;57.08
43621;BME280;29213;50.770;7.298;2022-11-20T00:31:28;100497.28;;;2.13;56.32
43621;BME280;29213;50.770;7.298;2022-11-20T00:33:53;100428.47;;;1.70;55.50
43621;BME280;29213;50.770;7.298;2022-11-20T00:36:24;100497.38;;;2.11;55.53
43621;BME280;29213;50.770;7.298;2022-11-20T00:38:54;100497.75;;;1.94;56.01
43621;BME280;29213;50.770;7.298;2022-11-20T00:41:20;100499.22;;;1.85;56.13
43621;BME280;29213;50.770;7.298;2022-11-20T00:43:45;100487.06;;;1.84;56.60
43621;BME280;29213;50.770;7.298;2022-11-20T00:46:18;100325.91;;;0.86;56.67
43621;BME280;29213;50.770;7.298;2022-11-20T00:48:44;100286.50;;;0.61;56.58
43621;BME280;29213;50.770;7.298;2022-11-20T00:51:15;100399.69;;;1.31;56.46
43621;BME280;29213;50.770;7.298;2022-11-20T00:53:41;100462.91;;;1.79;57.06
43621;BME280;29213;50.770;7.298;2022-11-20T00:56:09;100497.41;;;1.98;55.83
43621;BME280;29213;50.770;7.298;2022-11-20T00:58:37;100399.34;;;1.36;56.26
43621;BME280;29213;50.770;7.298;2022-11-20T01:01:09;100447.19;;;1.53;56.29
43621;BME280;29213;50.770;7.298;2022-11-20T01:03:37;100493.88;;;1.86;56.70
43621;BME280;29213;50.770;7.298;2022-11-20T01:06:09;100437.66;;;1.52;56.53
43621;BME280;29213;50.770;7.298;2022-11-20T01:08:36;100495.22;;;1.92;56.51
43621;BME280;29213;50.770;7.298;2022-11-20T01:11:06;100499.91;;;2.00;56.54
43621;BME280;29213;50.770;7.298;2022-11-20T01:13:32;100427.22;;;1.63;56.67
43621;BME280;29213;50.770;7.298;2022-11-20T01:16:10;100440.31;;;1.76;56.85
43621;BME280;29213;50.770;7.298;2022-11-20T01:18:38;100488.19;;;2.06;56.45
43621;BME280;29213;50.770;7.298;2022-11-20T01:21:09;100489.66;;;1.97;56.28
43621;BME280;29213;50.770;7.298;2022-11-20T01:23:36;100485.47;;;1.81;56.67
43621;BME280;29213;50.770;7.298;2022-11-20T01:26:04;100477.03;;;1.52;56.82
43621;BME280;29213;50.770;7.298;2022-11-20T01:28:30;100456.91;;;1.26;57.82
43621;BME280;29213;50.770;7.298;2022-11-20T01:30:56;100388.72;;;0.74;58.06
43621;BME280;29213;50.770;7.298;2022-11-20T01:33:22;100466.78;;;1.22;58.41
43621;BME280;29213;50.770;7.298;2022-11-20T01:35:47;100335.44;;;0.48;58.04
43621;BME280;29213;50.770;7.298;2022-11-20T01:38:15;100370.25;;;0.76;57.99
43621;BME280;29213;50.770;7.298;2022-11-20T01:40:40;100437.81;;;1.11;58.25
43621;BME280;29213;50.770;7.298;2022-11-20T01:43:19;100465.91;;;1.48;58.26
43621;BME280;29213;50.770;7.298;2022-11-20T01:46:19;100340.88;;;0.84;58.13
43621;BME280;29213;50.770;7.298;2022-11-20T01:49:54;100469.41;;;1.73;57.95
43621;BME280;29213;50.770;7.298;2022-11-20T01:51:59;100427.88;;;1.54;57.57
43621;BME280;29213;50.770;7.298;2022-11-20T01:54:52;100391.19;;;1.41;57.54
43621;BME280;29213;50.770;7.298;2022-11-20T01:57:19;100394.50;;;1.56;57.66
43621;BME280;29213;50.770;7.298;2022-11-20T01:59:51;100316.53;;;1.07;56.95
43621;BME280;29213;50.770;7.298;2022-11-20T02:02:18;100371.41;;;1.48;57.01
43621;BME280;29213;50.770;7.298;2022-11-20T02:04:44;100460.09;;;2.06;57.04
43621;BME280;29213;50.770;7.298;2022-11-20T02:07:10;100357.78;;;1.43;57.26
43621;BME280;29213;50.770;7.298;2022-11-20T02:09:35;100476.97;;;2.15;57.09
43621;BME280;29213;50.770;7.298;2022-11-20T02:12:01;100432.78;;;1.96;56.50
43621;BME280;29213;50.770;7.298;2022-11-20T02:14:27;100282.88;;;1.01;56.81
43621;BME280;29213;50.770;7.298;2022-11-20T02:16:54;100336.38;;;1.36;56.19
43621;BME280;29213;50.770;7.298;2022-11-20T02:19:24;100481.59;;;2.24;55.96
43621;BME280;29213;50.770;7.298;2022-11-20T02:22:30;100481.47;;;2.26;56.50
43621;BME280;29213;50.770;7.298;2022-11-20T02:24:48;100475.97;;;2.29;55.85
43621;BME280;29213;50.770;7.298;2022-11-20T02:27:16;100327.19;;;1.30;56.18
43621;BME280;29213;50.770;7.298;2022-11-20T02:29:46;100473.69;;;2.24;56.07
43621;BME280;29213;50.770;7.298;2022-11-20T02:32:25;100368.00;;;1.59;55.94
43621;BME280;29213;50.770;7.298;2022-11-20T02:34:51;100441.59;;;2.08;56.18
43621;BME280;29213;50.770;7.298;2022-11-20T02:37:17;100473.69;;;2.24;56.73
43621;BME280;29213;50.770;7.298;2022-11-20T02:39:44;100464.03;;;2.25;56.12
43621;BME280;29213;50.770;7.298;2022-11-20T02:42:11;100373.56;;;1.67;56.67
43621;BME280;29213;50.770;7.298;2022-11-20T02:44:36;100319.81;;;1.35;56.04
43621;BME280;29213;50.770;7.298;2022-11-20T02:47:02;100457.06;;;2.24;56.39
43621;BME280;29213;50.770;7.298;2022-11-20T02:49:27;100450.38;;;2.20;56.73
43621;BME280;29213;50.770;7.298;2022-11-20T02:51:53;100395.25;;;1.82;55.96
43621;BME280;29213;50.770;7.298;2022-11-20T02:54:18;100409.44;;;1.80;56.45
43621;BME280;29213;50.770;7.298;2022-11-20T02:56:44;100390.78;;;1.71;56.42
43621;BME280;29213;50.770;7.298;2022-11-20T02:59:09;100345.06;;;1.50;56.85
43621;BME280;29213;50.770;7.298;2022-11-20T03:01:35;100273.50;;;1.10;56.63
43621;BME280;29213;50.770;7.298;2022-11-20T03:04:01;100351.03;;;1.52;56.32
43621;BME280;29213;50.770;7.298;2022-11-20T03:06:26;100418.84;;;1.95;56.61
43621;BME280;29213;50.770;7.298;2022-11-20T03:08:51;100320.13;;;1.31;57.07
43621;BME280;29213;50.770;7.298;2022-11-20T03:11:17;100346.88;;;1.36;56.82
43621;BME280;29213;50.770;7.298;2022-11-20T03:13:42;100369.75;;;1.47;56.82
43621;BME280;29213;50.770;7.298;2022-11-20T03:16:16;100410.41;;;1.66;56.97
43621;BME280;29213;50.770;7.298;2022-11-20T03:18:42;100408.81;;;1.76;57.64
43621;BME280;29213;50.770;7.298;2022-11-20T03:21:09;100418.63;;;1.61;57.25
43621;BME280;29213;50.770;7.298;2022-11-20T03:23:35;100391.38;;;1.38;57.41
43621;BME280;29213;50.770;7.298;2022-11-20T03:26:14;100429.41;;;1.69;57.96
43621;BME280;29213;50.770;7.298;2022-11-20T03:28:41;100327.09;;;1.19;57.96
43621;BME280;29213;50.770;7.298;2022-11-20T03:31:11;100430.75;;;1.88;57.42
43621;BME280;29213;50.770;7.298;2022-11-20T03:33:38;100393.63;;;1.68;57.62
43621;BME280;29213;50.770;7.298;2022-11-20T03:36:07;100414.53;;;1.94;57.53
43621;BME280;29213;50.770;7.298;2022-11-20T03:38:32;100406.16;;;1.89;58.11
43621;BME280;29213;50.770;7.298;2022-11-20T03:41:00;100357.06;;;1.65;57.45
43621;BME280;29213;50.770;7.298;2022-11-20T03:43:27;100428.13;;;2.12;57.69
43621;BME280;29213;50.770;7.298;2022-11-20T03:45:53;100338.00;;;1.50;57.37
43621;BME280;29213;50.770;7.298;2022-11-20T03:48:18;100317.47;;;1.44;57.42
43621;BME280;29213;50.770;7.298;2022-11-20T03:50:43;100371.81;;;1.79;57.87
43621;BME280;29213;50.770;7.298;2022-11-20T03:53:09;100414.38;;;2.09;57.38
43621;BME280;29213;50.770;7.298;2022-11-20T03:55:34;100393.53;;;1.94;56.60
43621;BME280;29213;50.770;7.298;2022-11-20T03:58:00;100376.44;;;1.75;56.70
43621;BME280;29213;50.770;7.298;2022-11-20T04:00:25;100397.91;;;2.07;56.40
43621;BME280;29213;50.770;7.298;2022-11-20T04:02:50;100359.53;;;1.80;56.97
43621;BME280;29213;50.770;7.298;2022-11-20T04:05:16;100417.66;;;2.24;56.39
43621;BME280;29213;50.770;7.298;2022-11-20T04:07:41;100423.81;;;2.11;56.65
43621;BME280;29213;50.770;7.298;2022-11-20T04:10:07;100366.22;;;1.59;57.36
43621;BME280;29213;50.770;7.298;2022-11-20T04:12:32;100411.78;;;1.96;57.10
43621;BME280;29213;50.770;7.298;2022-11-20T04:14:58;100299.03;;;1.32;57.16
43621;BME280;29213;50.770;7.298;2022-11-20T04:17:24;100350.38;;;1.61;57.52
43621;BME280;29213;50.770;7.298;2022-11-20T04:19:49;100341.03;;;1.57;57.37
43621;BME280;29213;50.770;7.298;2022-11-20T04:22:14;100328.97;;;1.54;57.56
43621;BME280;29213;50.770;7.298;2022-11-20T04:24:40;100312.38;;;1.54;57.77
43621;BME280;29213;50.770;7.298;2022-11-20T04:27:05;100337.50;;;1.69;57.60
43621;BME280;29213;50.770;7.298;2022-11-20T04:29:31;100272.13;;;1.17;57.12
43621;BME280;29213;50.770;7.298;2022-11-20T04:31:56;100263.00;;;1.10;57.41
43621;BME280;29213;50.770;7.298;2022-11-20T04:34:21;100404.94;;;1.93;57.19
43621;BME280;29213;50.770;7.298;2022-11-20T04:36:47;100340.31;;;1.55;57.49
43621;BME280;29213;50.770;7.298;2022-11-20T04:39:14;100395.81;;;1.99;57.40
43621;BME280;29213;50.770;7.298;2022-11-20T04:41:40;100280.91;;;1.29;57.52
43621;BME280;29213;50.770;7.298;2022-11-20T04:44:06;100296.13;;;1.48;57.25
43621;BME280;29213;50.770;7.298;2022-11-20T04:46:34;100304.63;;;1.52;57.19
43621;BME280;29213;50.770;7.298;2022-11-20T04:49:00;100322.94;;;1.65;57.47
43621;BME280;29213;50.770;7.298;2022-11-20T04:51:26;100339.44;;;1.67;57.38
43621;BME280;29213;50.770;7.298;2022-11-20T04:53:51;100259.19;;;1.14;57.54
43621;BME280;29213;50.770;7.298;2022-11-20T04:56:17;100292.63;;;1.37;57.70
43621;BME280;29213;50.770;7.298;2022-11-20T04:58:42;100324.50;;;1.68;57.35
43621;BME280;29213;50.770;7.298;2022-11-20T05:01:16;100391.34;;;2.12;57.52
43621;BME280;29213;50.770;7.298;2022-11-20T05:03:42;100272.94;;;1.42;57.62
43621;BME280;29213;50.770;7.298;2022-11-20T05:06:09;100391.84;;;2.18;57.98
43621;BME280;29213;50.770;7.298;2022-11-20T05:08:34;100285.63;;;1.48;57.54
43621;BME280;29213;50.770;7.298;2022-11-20T05:11:05;100391.84;;;2.18;57.28
43621;BME280;29213;50.770;7.298;2022-11-20T05:13:31;100307.25;;;1.52;57.26
43621;BME280;29213;50.770;7.298;2022-11-20T05:16:11;100389.66;;;2.11;57.30
43621;BME280;29213;50.770;7.298;2022-11-20T05:18:37;100393.84;;;2.14;57.53
43621;BME280;29213;50.770;7.298;2022-11-20T05:21:03;100342.31;;;1.75;57.66
43621;BME280;29213;50.770;7.298;2022-11-20T05:23:30;100389.28;;;2.05;57.58
43621;BME280;29213;50.770;7.298;2022-11-20T05:25:57;100388.03;;;1.97;58.10
43621;BME280;29213;50.770;7.298;2022-11-20T05:28:22;100396.44;;;2.03;58.17
43621;BME280;29213;50.770;7.298;2022-11-20T05:30:48;100387.38;;;2.07;57.98
43621;BME280;29213;50.770;7.298;2022-11-20T05:33:14;100390.41;;;2.13;58.12
43621;BME280;29213;50.770;7.298;2022-11-20T05:35:39;100290.22;;;1.58;57.88
43621;BME280;29213;50.770;7.298;2022-11-20T05:38:05;100346.56;;;1.89;57.79
43621;BME280;29213;50.770;7.298;2022-11-20T05:40:30;100239.03;;;1.28;58.02
43621;BME280;29213;50.770;7.298;2022-11-20T05:42:56;100330.66;;;1.80;57.75
43621;BME280;29213;50.770;7.298;2022-11-20T05:45:21;100325.28;;;1.81;58.08
43621;BME280;29213;50.770;7.298;2022-11-20T05:47:46;100395.56;;;2.26;58.21
43621;BME280;29213;50.770;7.298;2022-11-20T05:50:13;100362.78;;;2.08;57.54
43621;BME280;29213;50.770;7.298;2022-11-20T05:52:38;100400.72;;;2.28;57.28
43621;BME280;29213;50.770;7.298;2022-11-20T05:55:04;100393.69;;;2.28;57.61
43621;BME280;29213;50.770;7.298;2022-11-20T05:57:30;100377.88;;;2.17;57.44
43621;BME280;29213;50.770;7.298;2022-11-20T05:59:56;100286.75;;;1.57;57.17
43621;BME280;29213;50.770;7.298;2022-11-20T06:02:21;100302.66;;;1.67;57.20
43621;BME280;29213;50.770;7.298;2022-11-20T06:04:46;100331.16;;;1.85;57.10
43621;BME280;29213;50.770;7.298;2022-11-20T06:07:12;100316.06;;;1.75;57.03
43621;BME280;29213;50.770;7.298;2022-11-20T06:09:37;100365.31;;;2.09;56.95
43621;BME280;29213;50.770;7.298;2022-11-20T06:12:03;100352.31;;;1.95;57.45
43621;BME280;29213;50.770;7.298;2022-11-20T06:14:28;100337.47;;;1.82;57.48
43621;BME280;29213;50.770;7.298;2022-11-20T06:16:54;100281.72;;;1.54;56.98
43621;BME280;29213;50.770;7.298;2022-11-20T06:19:19;100365.13;;;1.99;57.41
43621;BME280;29213;50.770;7.298;2022-11-20T06:21:44;100294.50;;;1.59;56.95
43621;BME280;29213;50.770;7.298;2022-11-20T06:24:10;100244.25;;;1.28;57.52
43621;BME280;29213;50.770;7.298;2022-11-20T06:26:36;100381.56;;;2.14;57.75
43621;BME280;29213;50.770;7.298;2022-11-20T06:29:02;100405.38;;;2.24;58.33
43621;BME280;29213;50.770;7.298;2022-11-20T06:31:27;100400.72;;;2.28;58.59
43621;BME280;29213;50.770;7.298;2022-11-20T06:33:53;100370.09;;;2.15;57.73
43621;BME280;29213;50.770;7.298;2022-11-20T06:36:20;100365.41;;;2.08;57.97
43621;BME280;29213;50.770;7.298;2022-11-20T06:38:46;100413.28;;;2.36;57.78
43621;BME280;29213;50.770;7.298;2022-11-20T06:41:16;100284.97;;;1.58;57.77
43621;BME280;29213;50.770;7.298;2022-11-20T06:43:43;100353.78;;;1.99;57.42
43621;BME280;29213;50.770;7.298;2022-11-20T06:46:10;100304.13;;;1.71;57.50
43621;BME280;29213;50.770;7.298;2022-11-20T06:48:36;100252.19;;;1.39;57.68
43621;BME280;29213;50.770;7.298;2022-11-20T06:51:06;100342.66;;;1.95;58.21
43621;BME280;29213;50.770;7.298;2022-11-20T06:53:32;100410.66;;;2.36;57.73
43621;BME280;29213;50.770;7.298;2022-11-20T06:55:57;100388.38;;;2.17;57.90
43621;BME280;29213;50.770;7.298;2022-11-20T06:58:23;100428.00;;;2.38;58.40
43621;BME280;29213;50.770;7.298;2022-11-20T07:00:51;100392.59;;;2.20;57.97
43621;BME280;29213;50.770;7.298;2022-11-20T07:03:16;100432.19;;;2.41;57.68
43621;BME280;29213;50.770;7.298;2022-11-20T07:05:41;100427.78;;;2.41;57.78
43621;BME280;29213;50.770;7.298;2022-11-20T07:08:07;100376.88;;;2.07;57.73
43621;BME280;29213;50.770;7.298;2022-11-20T07:10:33;100439.72;;;2.46;57.97
43621;BME280;29213;50.770;7.298;2022-11-20T07:12:58;100400.13;;;2.24;58.21
43621;BME280;29213;50.770;7.298;2022-11-20T07:15:25;100440.31;;;2.49;58.04
43621;BME280;29213;50.770;7.298;2022-11-20T07:17:50;100334.63;;;1.85;57.29
43621;BME280;29213;50.770;7.298;2022-11-20T07:20:16;100238.63;;;1.21;57.52
43621;BME280;29213;50.770;7.298;2022-11-20T07:22:42;100449.91;;;2.50;58.16
43621;BME280;29213;50.770;7.298;2022-11-20T07:25:08;100317.88;;;1.75;57.65
43621;BME280;29213;50.770;7.298;2022-11-20T07:27:34;100427.66;;;2.43;57.56
43621;BME280;29213;50.770;7.298;2022-11-20T07:30:00;100293.44;;;1.61;57.68
43621;BME280;29213;50.770;7.298;2022-11-20T07:32:26;100453.16;;;2.54;57.46
43621;BME280;29213;50.770;7.298;2022-11-20T07:34:51;100404.81;;;3.25;74.25
43621;BME280;29213;50.770;7.298;2022-11-20T07:37:17;100453.94;;;4.59;72.16
43621;BME280;29213;50.770;7.298;2022-11-20T07:39:42;100304.66;;;4.04;62.14
43621;BME280;29213;50.770;7.298;2022-11-20T07:42:08;100447.59;;;4.61;58.51
43621;BME280;29213;50.770;7.298;2022-11-20T07:44:35;100446.97;;;4.36;57.44
43621;BME280;29213;50.770;7.298;2022-11-20T07:47:00;100439.84;;;4.15;56.87
43621;BME280;29213;50.770;7.298;2022-11-20T07:49:26;100443.63;;;3.90;56.31
43621;BME280;29213;50.770;7.298;2022-11-20T07:51:51;100352.56;;;3.20;56.64
43621;BME280;29213;50.770;7.298;2022-11-20T07:54:19;100393.31;;;3.38;56.53
43621;BME280;29213;50.770;7.298;2022-11-20T07:56:45;100441.53;;;3.61;56.74
43621;BME280;29213;50.770;7.298;2022-11-20T07:59:11;100438.31;;;3.46;56.15
43621;BME280;29213;50.770;7.298;2022-11-20T08:01:37;100306.03;;;2.52;56.84
43621;BME280;29213;50.770;7.298;2022-11-20T08:04:03;100391.88;;;2.99;57.25
43621;BME280;29213;50.770;7.298;2022-11-20T08:06:28;100450.41;;;3.37;57.38
43621;BME280;29213;50.770;7.298;2022-11-20T08:08:54;100326.84;;;2.55;57.40
43621;BME280;29213;50.770;7.298;2022-11-20T08:11:19;100383.66;;;2.92;57.04
43621;BME280;29213;50.770;7.298;2022-11-20T08:14:03;100396.44;;;2.97;56.97
43621;BME280;29213;50.770;7.298;2022-11-20T08:16:45;100421.31;;;3.16;57.38
43621;BME280;29213;50.770;7.298;2022-11-20T08:19:12;100428.41;;;3.27;57.67
43621;BME280;29213;50.770;7.298;2022-11-20T08:21:38;100446.94;;;3.25;57.81
43621;BME280;29213;50.770;7.298;2022-11-20T08:24:05;100443.34;;;3.26;58.33
43621;BME280;29213;50.770;7.298;2022-11-20T08:26:30;100406.97;;;2.97;58.13
43621;BME280;29213;50.770;7.298;2022-11-20T08:28:57;100406.75;;;3.00;59.04
43621;BME280;29213;50.770;7.298;2022-11-20T08:31:24;100445.75;;;3.29;58.17
43621;BME280;29213;50.770;7.298;2022-11-20T08:33:49;100438.34;;;3.23;57.76
43621;BME280;29213;50.770;7.298;2022-11-20T08:36:15;100451.97;;;3.28;57.92
43621;BME280;29213;50.770;7.298;2022-11-20T08:38:41;100324.44;;;2.52;58.29
43621;BME280;29213;50.770;7.298;2022-11-20T08:41:06;100274.19;;;2.21;57.97
43621;BME280;29213;50.770;7.298;2022-11-20T08:43:58;100448.72;;;3.25;57.51
43621;BME280;29213;50.770;7.298;2022-11-20T08:46:26;100345.81;;;2.36;58.14
43621;BME280;29213;50.770;7.298;2022-11-20T08:48:52;100428.91;;;2.62;58.14
43621;BME280;29213;50.770;7.298;2022-11-20T08:51:19;100461.34;;;2.85;59.35
43621;BME280;29213;50.770;7.298;2022-11-20T08:53:44;100376.97;;;2.30;58.55
43621;BME280;29213;50.770;7.298;2022-11-20T08:56:10;100420.19;;;2.73;58.05
43621;BME280;29213;50.770;7.298;2022-11-20T08:58:36;100175.44;;;1.24;58.43
43621;BME280;29213;50.770;7.298;2022-11-20T09:01:02;100399.53;;;2.68;58.21
43621;BME280;29213;50.770;7.298;2022-11-20T09:03:27;100389.81;;;2.68;58.93
43621;BME280;29213;50.770;7.298;2022-11-20T09:06:01;100268.03;;;1.98;58.55
43621;BME280;29213;50.770;7.298;2022-11-20T09:08:27;100456.97;;;3.20;58.42
43621;BME280;29213;50.770;7.298;2022-11-20T09:10:55;100455.91;;;3.22;58.29
43621;BME280;29213;50.770;7.298;2022-11-20T09:13:22;100388.66;;;2.84;58.42
43621;BME280;29213;50.770;7.298;2022-11-20T09:15:56;100322.88;;;2.50;58.49
43621;BME280;29213;50.770;7.298;2022-11-20T09:18:22;100393.69;;;2.99;58.17
43621;BME280;29213;50.770;7.298;2022-11-20T09:20:48;100348.13;;;2.75;58.15
43621;BME280;29213;50.770;7.298;2022-11-20T09:23:14;100329.59;;;2.65;58.20
43621;BME280;29213;50.770;7.298;2022-11-20T09:25:39;100446.56;;;3.41;58.45
43621;BME280;29213;50.770;7.298;2022-11-20T09:28:05;100366.06;;;2.93;57.89
43621;BME280;29213;50.770;7.298;2022-11-20T09:30:30;100394.78;;;2.96;57.75
43621;BME280;29213;50.770;7.298;2022-11-20T09:32:56;100322.97;;;2.37;57.96
43621;BME280;29213;50.770;7.298;2022-11-20T09:35:21;100415.34;;;2.91;58.38
43621;BME280;29213;50.770;7.298;2022-11-20T09:37:47;100351.59;;;2.64;58.63
43621;BME280;29213;50.770;7.298;2022-11-20T09:40:24;100419.66;;;3.15;58.79
43621;BME280;29213;50.770;7.298;2022-11-20T09:43:04;100420.25;;;3.18;58.01
43621;BME280;29213;50.770;7.298;2022-11-20T09:45:50;100410.47;;;3.09;58.86
43621;BME280;29213;50.770;7.298;2022-11-20T09:48:35;100432.59;;;3.29;58.55
43621;BME280;29213;50.770;7.298;2022-11-20T09:51:20;100436.41;;;3.37;57.89
43621;BME280;29213;50.770;7.298;2022-11-20T09:54:13;100411.28;;;3.32;58.01
43621;BME280;29213;50.770;7.298;2022-11-20T09:56:46;100410.69;;;3.29;57.65
43621;BME280;29213;50.770;7.298;2022-11-20T09:59:31;100353.50;;;2.74;57.74
43621;BME280;29213;50.770;7.298;2022-11-20T10:01:59;100363.19;;;2.85;58.61
43621;BME280;29213;50.770;7.298;2022-11-20T10:04:25;100209.34;;;1.74;58.44
43621;BME280;29213;50.770;7.298;2022-11-20T10:07:05;100357.94;;;2.73;58.68
43621;BME280;29213;50.770;7.298;2022-11-20T10:09:34;100387.47;;;3.11;58.90
43621;BME280;29213;50.770;7.298;2022-11-20T10:25:16;100416.50;;;3.55;58.70
43621;BME280;29213;50.770;7.298;2022-11-20T10:30:38;100362.06;;;3.56;58.15
43621;BME280;29213;50.770;7.298;2022-11-20T10:33:14;100366.22;;;3.70;57.80
43621;BME280;29213;50.770;7.298;2022-11-20T10:38:37;100213.50;;;2.81;57.60
43621;BME280;29213;50.770;7.298;2022-11-20T10:41:05;100294.75;;;3.30;57.68
43621;BME280;29213;50.770;7.298;2022-11-20T10:43:53;100349.09;;;3.64;57.22
43621;BME280;29213;50.770;7.298;2022-11-20T10:46:22;100358.28;;;3.81;57.55
43621;BME280;29213;50.770;7.298;2022-11-20T10:48:49;100331.84;;;3.71;57.65
43621;BME280;29213;50.770;7.298;2022-11-20T10:51:34;100374.06;;;4.14;57.71
43621;BME280;29213;50.770;7.298;2022-11-20T10:54:09;100364.81;;;3.98;56.37
43621;BME280;29213;50.770;7.298;2022-11-20T10:56:46;100314.03;;;3.64;57.66
43621;BME280;29213;50.770;7.298;2022-11-20T11:01:48;100359.38;;;4.00;57.52
43621;BME280;29213;50.770;7.298;2022-11-20T11:07:15;100316.19;;;3.91;57.63
43621;BME280;29213;50.770;7.298;2022-11-20T11:09:46;100334.50;;;3.93;56.68
43621;BME280;29213;50.770;7.298;2022-11-20T11:12:12;100336.00;;;3.85;57.34
43621;BME280;29213;50.770;7.298;2022-11-20T11:14:49;100226.56;;;3.16;57.38
43621;BME280;29213;50.770;7.298;2022-11-20T11:20:18;100305.97;;;3.77;57.77
43621;BME280;29213;50.770;7.298;2022-11-20T11:22:50;100228.78;;;3.43;57.50
43621;BME280;29213;50.770;7.298;2022-11-20T11:25:21;100320.19;;;4.07;57.44
43621;BME280;29213;50.770;7.298;2022-11-20T11:27:48;100150.41;;;3.14;57.25
43621;BME280;29213;50.770;7.298;2022-11-20T11:30:15;100300.72;;;4.19;57.38
43621;BME280;29213;50.770;7.298;2022-11-20T11:32:41;100254.31;;;3.85;57.50
43621;BME280;29213;50.770;7.298;2022-11-20T11:35:25;100266.84;;;3.93;57.03
43621;BME280;29213;50.770;7.298;2022-11-20T11:37:54;100306.88;;;4.29;56.87
43621;BME280;29213;50.770;7.298;2022-11-20T11:40:26;100245.22;;;3.78;56.84
43621;BME280;29213;50.770;7.298;2022-11-20T11:43:04;100282.31;;;4.08;57.21
43621;BME280;29213;50.770;7.298;2022-11-20T11:45:53;100294.22;;;4.23;56.98
43621;BME280;29213;50.770;7.298;2022-11-20T11:48:19;100242.56;;;3.89;56.97
43621;BME280;29213;50.770;7.298;2022-11-20T11:50:49;100227.59;;;3.69;57.18
43621;BME280;29213;50.770;7.298;2022-11-20T11:53:18;100225.75;;;3.69;57.06
43621;BME280;29213;50.770;7.298;2022-11-20T11:55:54;100136.34;;;3.25;57.27
43621;BME280;29213;50.770;7.298;2022-11-20T12:03:52;100240.03;;;4.09;57.19
43621;BME280;29213;50.770;7.298;2022-11-20T12:06:20;100259.78;;;4.15;57.36
43621;BME280;29213;50.770;7.298;2022-11-20T12:08:53;100203.28;;;3.86;57.18
43621;BME280;29213;50.770;7.298;2022-11-20T12:11:56;100264.13;;;4.26;58.40
43621;BME280;29213;50.770;7.298;2022-11-20T12:14:33;100267.53;;;5.00;67.29
43621;BME280;29213;50.770;7.298;2022-11-20T12:17:00;100234.88;;;5.01;59.10
43621;BME280;29213;50.770;7.298;2022-11-20T12:19:29;100084.63;;;3.98;57.11
43621;BME280;29213;50.770;7.298;2022-11-20T12:22:05;100237.88;;;4.87;56.52
43621;BME280;29213;50.770;7.298;2022-11-20T12:24:42;100239.53;;;4.78;57.13
43621;BME280;29213;50.770;7.298;2022-11-20T12:29:56;100168.53;;;4.24;57.16
43621;BME280;29213;50.770;7.298;2022-11-20T12:32:42;100136.91;;;3.93;57.25
43621;BME280;29213;50.770;7.298;2022-11-20T12:38:38;100192.88;;;3.85;57.76
43621;BME280;29213;50.770;7.298;2022-11-20T12:53:02;100169.13;;;4.37;57.63
43621;BME280;29213;50.770;7.298;2022-11-20T12:55:40;100201.84;;;4.56;57.53
43621;BME280;29213;50.770;7.298;2022-11-20T13:04:20;100189.94;;;4.62;57.56
43621;BME280;29213;50.770;7.298;2022-11-20T13:06:50;100176.34;;;4.35;57.63
43621;BME280;29213;50.770;7.298;2022-11-20T13:09:17;100184.97;;;4.47;57.91
43621;BME280;29213;50.770;7.298;2022-11-20T13:12:13;100112.97;;;4.06;57.81
43621;BME280;29213;50.770;7.298;2022-11-20T13:14:46;100173.19;;;4.41;58.26
43621;BME280;29213;50.770;7.298;2022-11-20T13:17:17;100166.09;;;4.42;58.80
43621;BME280;29213;50.770;7.298;2022-11-20T13:19:52;100167.38;;;4.48;58.64
43621;BME280;29213;50.770;7.298;2022-11-20T13:22:26;100105.09;;;4.15;58.69
43621;BME280;29213;50.770;7.298;2022-11-20T13:24:52;100122.44;;;4.18;58.99
43621;BME280;29213;50.770;7.298;2022-11-20T13:27:20;100146.78;;;4.32;59.15
43621;BME280;29213;50.770;7.298;2022-11-20T13:30:02;99986.56;;;3.22;59.34
43621;BME280;29213;50.770;7.298;2022-11-20T13:32:48;100138.28;;;4.28;59.36
43621;BME280;29213;50.770;7.298;2022-11-20T13:35:36;100123.44;;;4.27;59.42
43621;BME280;29213;50.770;7.298;2022-11-20T13:38:08;100133.41;;;4.54;63.04
43621;BME280;29213;50.770;7.298;2022-11-20T13:40:50;99956.19;;;3.90;59.98
43621;BME280;29213;50.770;7.298;2022-11-20T13:43:38;100126.50;;;4.73;59.52
43621;BME280;29213;50.770;7.298;2022-11-20T13:46:07;100059.47;;;4.15;59.62
43621;BME280;29213;50.770;7.298;2022-11-20T13:48:38;100055.13;;;4.04;60.16
43621;BME280;29213;50.770;7.298;2022-11-20T13:51:26;100105.97;;;4.36;60.41
43621;BME280;29213;50.770;7.298;2022-11-20T13:59:36;100099.00;;;4.15;60.65
43621;BME280;29213;50.770;7.298;2022-11-20T14:02:11;100020.03;;;3.62;60.75
43621;BME280;29213;50.770;7.298;2022-11-20T14:04:42;100009.50;;;3.62;60.98
43621;BME280;29213;50.770;7.298;2022-11-20T14:07:08;99995.25;;;3.75;60.75
43621;BME280;29213;50.770;7.298;2022-11-20T14:09:34;99991.22;;;3.71;60.84
43621;BME280;29213;50.770;7.298;2022-11-20T14:12:02;100069.31;;;4.23;61.28
43621;BME280;29213;50.770;7.298;2022-11-20T14:14:29;100069.59;;;4.20;61.17